createdAt,value
2017-09-02T00:01:06.340Z,99.99
2017-09-02T00:02:28.489Z,99.99
2017-09-02T00:03:50.638Z,99.99
2017-09-02T00:05:13.132Z,99.99
2017-09-02T00:06:35.012Z,99.99
2017-09-02T00:07:57.155Z,99.99
2017-09-02T00:09:18.636Z,99.99
2017-09-02T00:10:40.472Z,99.99
2017-09-02T00:12:02.344Z,99.99
2017-09-02T00:13:24.812Z,99.99
2017-09-02T00:14:46.973Z,99.99
2017-09-02T00:16:08.491Z,99.99
2017-09-02T00:17:30.884Z,99.99
2017-09-02T00:18:53.054Z,99.99
2017-09-02T00:20:14.872Z,99.99
2017-09-02T00:21:37.016Z,99.99
2017-09-02T00:22:58.883Z,99.99
2017-09-02T00:24:20.710Z,99.99
2017-09-02T00:25:42.847Z,99.99
2017-09-02T00:27:04.653Z,99.99
2017-09-02T00:28:26.859Z,99.99
2017-09-02T00:29:49.349Z,99.99
2017-09-02T00:31:11.519Z,99.99
2017-09-02T00:32:33.766Z,99.99
2017-09-02T00:33:55.881Z,99.99
2017-09-02T00:35:17.399Z,99.99
2017-09-02T00:36:39.914Z,99.99
2017-09-02T00:38:02.085Z,99.99
2017-09-02T00:39:25.083Z,99.99
2017-09-02T00:40:46.914Z,99.99
2017-09-02T00:42:08.733Z,99.99
2017-09-02T00:43:30.578Z,99.99
2017-09-02T00:44:53.385Z,99.99
2017-09-02T00:46:14.903Z,99.99
2017-09-02T00:47:37.034Z,99.99
2017-09-02T00:48:58.542Z,99.99
2017-09-02T00:50:21.310Z,99.99
2017-09-02T00:51:43.183Z,99.99
2017-09-02T00:53:05.027Z,99.99
2017-09-02T00:54:27.184Z,99.99
2017-09-02T00:55:48.935Z,99.99
2017-09-02T00:57:11.403Z,99.99
2017-09-02T00:58:32.904Z,99.99
2017-09-02T00:59:54.403Z,99.99
2017-09-02T01:01:16.546Z,99.99
2017-09-02T01:02:38.990Z,99.99
2017-09-02T01:04:00.823Z,99.99
2017-09-02T01:05:22.982Z,99.99
2017-09-02T01:06:45.245Z,99.99
2017-09-02T01:08:06.423Z,99.99
2017-09-02T01:09:28.568Z,99.99
2017-09-02T01:10:49.737Z,99.99
2017-09-02T01:12:11.492Z,99.99
2017-09-02T01:13:33.004Z,99.99
2017-09-02T01:14:55.467Z,99.99
2017-09-02T01:16:17.642Z,99.99
2017-09-02T01:17:40.020Z,99.99
2017-09-02T01:19:00.933Z,99.99
2017-09-02T01:20:22.900Z,99.99
2017-09-02T01:21:45.035Z,99.99
2017-09-02T01:23:07.226Z,99.99
2017-09-02T01:24:28.763Z,99.99
2017-09-02T01:25:50.605Z,99.99
2017-09-02T01:27:12.849Z,99.99
2017-09-02T01:28:34.664Z,99.99
2017-09-02T01:29:56.322Z,99.99
2017-09-02T01:31:18.140Z,99.99
2017-09-02T01:32:39.631Z,99.99
2017-09-02T01:34:02.544Z,99.99
2017-09-02T01:35:24.694Z,99.99
2017-09-02T01:36:46.013Z,99.99
2017-09-02T01:38:07.840Z,99.99
2017-09-02T01:39:30.383Z,99.99
2017-09-02T01:40:52.201Z,99.99
2017-09-02T01:42:14.363Z,99.99
2017-09-02T01:43:36.194Z,99.99
2017-09-02T01:44:58.571Z,99.99
2017-09-02T01:46:20.723Z,99.99
2017-09-02T01:47:42.934Z,99.99
2017-09-02T01:49:04.753Z,99.99
2017-09-02T01:50:27.616Z,99.99
2017-09-02T01:51:49.741Z,99.99
2017-09-02T01:53:12.366Z,99.99
2017-09-02T01:54:34.038Z,99.99
2017-09-02T01:55:56.494Z,99.99
2017-09-02T01:57:18.741Z,99.99
2017-09-02T01:58:41.008Z,99.99
2017-09-02T02:00:02.527Z,99.99
2017-09-02T02:01:24.066Z,99.99
2017-09-02T02:02:46.536Z,99.99
2017-09-02T02:04:08.169Z,99.99
2017-09-02T02:05:29.504Z,99.99
2017-09-02T02:06:51.792Z,99.99
2017-09-02T02:08:13.954Z,99.99
2017-09-02T02:09:35.771Z,99.99
2017-09-02T02:10:58.244Z,99.99
2017-09-02T02:12:20.446Z,99.99
2017-09-02T02:13:42.656Z,99.99
2017-09-02T02:15:04.492Z,99.99
2017-09-02T02:16:26.990Z,99.99
2017-09-02T02:17:49.395Z,99.99
2017-09-02T02:19:11.874Z,99.99
2017-09-02T02:20:33.374Z,99.99
2017-09-02T02:21:54.874Z,99.99
2017-09-02T02:23:17.312Z,99.99
2017-09-02T02:24:39.874Z,99.99
2017-09-02T02:26:02.023Z,99.99
2017-09-02T02:27:23.533Z,99.99
2017-09-02T02:28:45.384Z,99.99
2017-09-02T02:30:06.900Z,99.99
2017-09-02T02:31:29.055Z,99.99
2017-09-02T02:32:50.544Z,99.99
2017-09-02T02:34:12.690Z,99.99
2017-09-02T02:35:34.204Z,99.99
2017-09-02T02:36:56.041Z,99.99
2017-09-02T02:38:17.557Z,99.99
2017-09-02T02:39:39.324Z,99.99
2017-09-02T02:41:01.160Z,99.99
2017-09-02T02:42:22.985Z,99.99
2017-09-02T02:43:45.183Z,99.99
2017-09-02T02:45:07.589Z,99.99
2017-09-02T02:46:29.404Z,99.99
2017-09-02T02:47:51.541Z,99.99
2017-09-02T02:49:13.373Z,99.99
2017-09-02T02:50:35.869Z,99.99
2017-09-02T02:51:57.814Z,99.99
2017-09-02T02:53:19.324Z,99.99
2017-09-02T02:54:41.473Z,99.99
2017-09-02T02:56:03.282Z,99.99
2017-09-02T02:57:25.524Z,99.99
2017-09-02T02:58:47.339Z,99.99
2017-09-02T03:00:08.844Z,99.99
2017-09-02T03:01:30.757Z,99.99
2017-09-02T03:02:53.234Z,99.99
2017-09-02T03:04:14.732Z,99.99
2017-09-02T03:05:36.234Z,99.99
2017-09-02T03:06:58.301Z,99.99
2017-09-02T03:08:20.126Z,99.99
2017-09-02T03:09:41.952Z,99.99
2017-09-02T03:11:03.770Z,99.99
2017-09-02T03:12:40.470Z,99.99
2017-09-02T03:14:02.656Z,99.99
2017-09-02T03:15:24.893Z,99.99
2017-09-02T03:16:47.063Z,99.99
2017-09-02T03:18:09.246Z,99.99
2017-09-02T03:19:31.839Z,99.99
2017-09-02T03:20:54.084Z,99.99
2017-09-02T03:22:15.903Z,99.99
2017-09-02T03:23:37.754Z,99.99
2017-09-02T03:24:59.573Z,99.99
2017-09-02T03:26:21.082Z,99.99
2017-09-02T03:27:42.588Z,99.99
2017-09-02T03:29:05.056Z,99.99
2017-09-02T03:30:27.206Z,99.99
2017-09-02T03:31:49.036Z,99.99
2017-09-02T03:33:10.553Z,99.99
2017-09-02T03:34:32.126Z,99.99
2017-09-02T03:35:53.955Z,99.99
2017-09-02T03:37:15.475Z,99.99
2017-09-02T03:38:37.302Z,99.99
2017-09-02T03:39:59.465Z,99.99
2017-09-02T03:41:21.404Z,99.99
2017-09-02T03:42:43.293Z,99.99
2017-09-02T03:44:04.797Z,99.99
2017-09-02T03:45:26.922Z,99.99
2017-09-02T03:46:48.753Z,99.99
2017-09-02T03:48:10.583Z,99.99
2017-09-02T03:49:32.731Z,99.99
2017-09-02T03:50:54.794Z,99.99
2017-09-02T03:52:17.096Z,99.99
2017-09-02T03:53:38.914Z,99.99
2017-09-02T03:55:00.739Z,99.99
2017-09-02T03:56:22.276Z,99.99
2017-09-02T03:57:43.912Z,99.99
2017-09-02T03:59:05.512Z,99.99
2017-09-02T04:00:27.004Z,99.99
2017-09-02T04:01:49.537Z,99.99
2017-09-02T04:03:11.368Z,99.99
2017-09-02T04:04:33.184Z,99.99
2017-09-02T04:05:55.108Z,99.99
2017-09-02T04:07:17.174Z,99.99
2017-09-02T04:08:38.446Z,99.99
2017-09-02T04:09:59.731Z,99.99
2017-09-02T04:11:21.347Z,99.99
2017-09-02T04:12:43.523Z,99.99
2017-09-02T04:14:05.669Z,99.99
2017-09-02T04:15:27.832Z,99.99
2017-09-02T04:16:49.655Z,99.99
2017-09-02T04:18:12.055Z,99.99
2017-09-02T04:19:34.334Z,99.99
2017-09-02T04:20:56.146Z,99.99
2017-09-02T04:22:18.021Z,99.99
2017-09-02T04:23:40.144Z,99.99
2017-09-02T04:25:01.966Z,99.99
2017-09-02T04:26:24.212Z,99.99
2017-09-02T04:27:45.397Z,99.99
2017-09-02T04:29:08.173Z,99.99
2017-09-02T04:30:30.013Z,99.99
2017-09-02T04:31:51.843Z,99.99
2017-09-02T04:33:13.347Z,99.99
2017-09-02T04:34:35.801Z,99.99
2017-09-02T04:35:57.954Z,99.99
2017-09-02T04:37:19.534Z,99.99
2017-09-02T04:38:41.753Z,99.99
2017-09-02T04:40:03.846Z,99.99
2017-09-02T04:41:25.689Z,99.99
2017-09-02T04:42:47.204Z,99.99
2017-09-02T04:44:09.088Z,99.99
2017-09-02T04:45:31.006Z,99.99
2017-09-02T04:46:53.603Z,99.99
2017-09-02T04:48:15.108Z,99.99
2017-09-02T04:49:37.283Z,99.99
2017-09-02T04:50:59.190Z,99.99
2017-09-02T04:52:21.345Z,99.99
2017-09-02T04:53:42.959Z,99.99
2017-09-02T04:55:05.203Z,99.99
2017-09-02T04:56:27.303Z,99.99
2017-09-02T04:57:49.114Z,99.99
2017-09-02T04:59:11.604Z,99.99
2017-09-02T05:00:33.134Z,99.99
2017-09-02T05:01:55.294Z,99.99
2017-09-02T05:03:17.464Z,99.99
2017-09-02T05:04:39.412Z,99.99
2017-09-02T05:06:00.904Z,99.99
2017-09-02T05:07:23.305Z,99.99
2017-09-02T05:08:45.584Z,99.99
2017-09-02T05:10:07.734Z,99.99
2017-09-02T05:11:30.233Z,99.99
2017-09-02T05:12:52.738Z,99.99
2017-09-02T05:14:14.909Z,99.99
2017-09-02T05:15:36.756Z,99.99
2017-09-02T05:16:59.333Z,99.99
2017-09-02T05:18:21.513Z,99.99
2017-09-02T05:19:43.985Z,99.99
2017-09-02T05:21:05.497Z,99.99
2017-09-02T05:22:27.676Z,99.99
2017-09-02T05:23:50.178Z,99.99
2017-09-02T05:25:12.634Z,99.99
2017-09-02T05:26:35.114Z,99.99
2017-09-02T05:27:57.264Z,99.99
2017-09-02T05:29:19.644Z,99.99
2017-09-02T05:30:42.176Z,99.99
2017-09-02T05:32:04.012Z,99.99
2017-09-02T05:33:25.368Z,99.99
2017-09-02T05:34:47.444Z,99.99
2017-09-02T05:36:09.576Z,99.99
2017-09-02T05:37:32.077Z,99.99
2017-09-02T05:38:54.242Z,99.99
2017-09-02T05:40:16.726Z,99.99
2017-09-02T05:41:39.300Z,99.99
2017-09-02T05:43:01.164Z,99.99
2017-09-02T05:44:23.327Z,99.99
2017-09-02T05:45:45.734Z,99.99
2017-09-02T05:47:07.684Z,99.99
2017-09-02T05:48:29.354Z,99.99
2017-09-02T05:49:51.537Z,99.99
2017-09-02T05:51:14.074Z,99.99
2017-09-02T05:52:36.217Z,99.99
2017-09-02T05:53:58.684Z,99.99
2017-09-02T05:55:20.521Z,99.99
2017-09-02T05:56:43.242Z,99.99
2017-09-02T05:58:05.924Z,97.52
2017-09-02T05:59:27.772Z,93.09
2017-09-02T06:00:49.348Z,88.79
2017-09-02T06:02:12.088Z,86.18
2017-09-02T06:03:34.263Z,84.58
2017-09-02T06:04:56.109Z,83.08
2017-09-02T06:06:18.630Z,81.44
2017-09-02T06:07:41.215Z,80.76
2017-09-02T06:09:03.201Z,80.12
2017-09-02T06:10:25.017Z,79.93
2017-09-02T06:11:46.547Z,78.61
2017-09-02T06:13:08.732Z,77.3
2017-09-02T06:14:30.093Z,76.46
2017-09-02T06:15:52.083Z,74.76
2017-09-02T06:17:13.940Z,74.47
2017-09-02T06:18:36.753Z,73.83
2017-09-02T06:19:58.944Z,73.93
2017-09-02T06:21:21.438Z,72.8
2017-09-02T06:22:43.164Z,72.89
2017-09-02T06:24:06.036Z,73.44
2017-09-02T06:25:28.216Z,73.89
2017-09-02T06:26:50.770Z,74.08
2017-09-02T06:28:13.236Z,73.54
2017-09-02T06:29:35.364Z,73.28
2017-09-02T06:30:57.863Z,71.96
2017-09-02T06:32:20.014Z,71.48
2017-09-02T06:33:42.196Z,71.12
2017-09-02T06:35:05.123Z,70.54
2017-09-02T06:36:26.674Z,69.9
2017-09-02T06:37:49.173Z,69.6
2017-09-02T06:39:11.685Z,69.41
2017-09-02T06:40:34.300Z,68.67
2017-09-02T06:41:56.264Z,68.51
2017-09-02T06:43:18.751Z,67.63
2017-09-02T06:44:41.344Z,66.89
2017-09-02T06:46:03.766Z,66.24
2017-09-02T06:47:25.973Z,66.34
2017-09-02T06:48:48.156Z,65.66
2017-09-02T06:50:10.410Z,65.75
2017-09-02T06:51:33.224Z,64.62
2017-09-02T06:52:55.062Z,65.01
2017-09-02T06:54:17.235Z,64.81
2017-09-02T06:55:38.772Z,63.48
2017-09-02T06:57:01.262Z,63.9
2017-09-02T06:58:22.453Z,63.68
2017-09-02T06:59:44.560Z,63.51
2017-09-02T07:01:06.833Z,63.32
2017-09-02T07:02:29.623Z,62.44
2017-09-02T07:03:51.490Z,61.69
2017-09-02T07:05:13.665Z,61.76
2017-09-02T07:06:36.166Z,63.19
2017-09-02T07:07:59.105Z,64.55
2017-09-02T07:09:20.959Z,63.62
2017-09-02T07:10:42.472Z,63.48
2017-09-02T07:12:04.644Z,62.44
2017-09-02T07:13:26.736Z,61.4
2017-09-02T07:14:48.964Z,61.11
2017-09-02T07:16:11.457Z,61.11
2017-09-02T07:17:33.625Z,61.37
2017-09-02T07:18:55.864Z,61.34
2017-09-02T07:20:18.634Z,61.21
2017-09-02T07:21:40.947Z,63.68
2017-09-02T07:23:03.420Z,62.87
2017-09-02T07:24:25.895Z,61.57
2017-09-02T07:25:48.420Z,63.61
2017-09-02T07:27:10.915Z,62.29
2017-09-02T07:28:33.485Z,61.93
2017-09-02T07:29:55.289Z,61.05
2017-09-02T07:31:17.475Z,62.15
2017-09-02T07:32:39.824Z,61.37
2017-09-02T07:34:01.673Z,61.4
2017-09-02T07:35:24.147Z,60.94
2017-09-02T07:36:45.343Z,60.55
2017-09-02T07:38:07.538Z,59.61
2017-09-02T07:39:29.049Z,63.71
2017-09-02T07:40:51.652Z,65.98
2017-09-02T07:42:13.273Z,66.14
2017-09-02T07:43:35.433Z,66.11
2017-09-02T07:44:56.995Z,67.02
2017-09-02T07:46:19.522Z,65.59
2017-09-02T07:47:41.056Z,69.54
2017-09-02T07:49:02.595Z,72.83
2017-09-02T07:50:24.121Z,75.77
2017-09-02T07:51:46.897Z,78.94
2017-09-02T07:53:09.062Z,82.78
2017-09-02T07:54:31.553Z,86.32
2017-09-02T07:55:54.103Z,89.04
2017-09-02T07:57:16.673Z,93.43
2017-09-02T07:58:38.831Z,93.24
2017-09-02T08:00:00.767Z,95.21
2017-09-02T08:01:22.372Z,98.82
2017-09-02T08:02:44.803Z,99.99
2017-09-02T08:04:07.136Z,99.99
2017-09-02T08:05:29.633Z,99.99
2017-09-02T08:06:51.961Z,99.99
2017-09-02T08:08:14.442Z,99.99
2017-09-02T08:09:35.988Z,99.99
2017-09-02T08:10:58.512Z,99.99
2017-09-02T08:12:20.960Z,99.99
2017-09-02T08:13:43.553Z,99.99
2017-09-02T08:15:04.743Z,99.99
2017-09-02T08:16:26.644Z,99.99
2017-09-02T08:17:48.805Z,99.99
2017-09-02T08:19:11.684Z,99.99
2017-09-02T08:20:33.850Z,99.99
2017-09-02T08:21:56.334Z,99.99
2017-09-02T08:23:18.498Z,99.99
2017-09-02T08:24:40.932Z,99.99
2017-09-02T08:26:03.105Z,99.99
2017-09-02T08:27:25.584Z,99.99
2017-09-02T08:28:48.145Z,99.99
2017-09-02T08:30:10.984Z,99.99
2017-09-02T08:31:33.142Z,99.99
2017-09-02T08:32:55.310Z,99.99
2017-09-02T08:34:17.613Z,98.96
2017-09-02T08:35:39.794Z,99.35
2017-09-02T08:37:01.962Z,99.99
2017-09-02T08:38:23.803Z,99.99
2017-09-02T08:39:45.982Z,99.99
2017-09-02T08:41:07.892Z,99.99
2017-09-02T08:42:30.103Z,99.99
2017-09-02T08:43:52.635Z,99.99
2017-09-02T08:45:14.549Z,99.99
2017-09-02T08:46:36.696Z,99.99
2017-09-02T08:47:58.597Z,99.99
2017-09-02T08:49:20.774Z,99.99
2017-09-02T08:50:43.338Z,99.99
2017-09-02T08:52:05.782Z,99.99
2017-09-02T08:53:27.342Z,99.99
2017-09-02T08:54:49.557Z,99.99
2017-09-02T08:56:11.684Z,98.63
2017-09-02T08:57:33.785Z,95.94
2017-09-02T08:58:55.734Z,96.22
2017-09-02T09:00:17.912Z,96.61
2017-09-02T09:01:39.743Z,97.33
2017-09-02T09:03:02.568Z,98.44
2017-09-02T09:04:24.778Z,98.14
2017-09-02T09:05:46.953Z,98.29
2017-09-02T09:07:08.794Z,99.16
2017-09-02T09:08:30.992Z,98.19
2017-09-02T09:09:52.888Z,98.14
2017-09-02T09:11:15.154Z,96.42
2017-09-02T09:12:36.989Z,94.54
2017-09-02T09:13:59.180Z,93.77
2017-09-02T09:15:21.404Z,94.44
2017-09-02T09:16:43.317Z,95.94
2017-09-02T09:18:05.543Z,93.48
2017-09-02T09:19:28.043Z,92.76
2017-09-02T09:20:50.228Z,88.56
2017-09-02T09:22:12.943Z,87.46
2017-09-02T09:23:35.133Z,90.3
2017-09-02T09:24:57.353Z,90.93
2017-09-02T09:26:19.532Z,91.41
2017-09-02T09:27:41.677Z,88.38
2017-09-02T09:29:03.884Z,86.21
2017-09-02T09:30:26.555Z,87.84
2017-09-02T09:31:48.723Z,88.61
2017-09-02T09:33:10.882Z,88.71
2017-09-02T09:34:32.853Z,89.86
2017-09-02T09:35:55.671Z,89.48
2017-09-02T09:37:17.851Z,86.54
2017-09-02T09:38:40.040Z,83.05
2017-09-02T09:40:01.544Z,84.07
2017-09-02T09:41:23.977Z,85.43
2017-09-02T09:42:46.471Z,85.53
2017-09-02T09:44:08.668Z,83.55
2017-09-02T09:45:30.663Z,83.2
2017-09-02T09:46:53.453Z,84.46
2017-09-02T09:48:15.319Z,84.41
2017-09-02T09:49:37.160Z,86.19
2017-09-02T09:50:58.754Z,85.61
2017-09-02T09:52:21.566Z,86.77
2017-09-02T09:53:44.065Z,86.77
2017-09-02T09:55:06.294Z,86.39
2017-09-02T09:56:28.492Z,88.56
2017-09-02T09:57:51.023Z,90.2
2017-09-02T09:59:13.572Z,90.44
2017-09-02T10:00:35.793Z,91.07
2017-09-02T10:01:57.127Z,93.19
2017-09-02T10:03:19.234Z,94.44
2017-09-02T10:04:41.407Z,95.79
2017-09-02T10:06:03.894Z,95.65
2017-09-02T10:07:25.744Z,96.61
2017-09-02T10:08:48.304Z,98.05
2017-09-02T10:10:10.504Z,98.44
2017-09-02T10:11:32.371Z,98.72
2017-09-02T10:12:54.216Z,97.57
2017-09-02T10:14:16.024Z,96.51
2017-09-02T10:15:38.243Z,95.36
2017-09-02T10:17:00.512Z,96.08
2017-09-02T10:18:22.674Z,92.71
2017-09-02T10:19:45.345Z,92.56
2017-09-02T10:21:07.504Z,93.76
2017-09-02T10:22:29.674Z,92.56
2017-09-02T10:23:51.674Z,87.2
2017-09-02T10:25:14.193Z,85.46
2017-09-02T10:26:36.344Z,82.81
2017-09-02T10:27:58.862Z,82.32
2017-09-02T10:29:20.685Z,83.09
2017-09-02T10:30:42.453Z,85.26
2017-09-02T10:32:04.735Z,87.19
2017-09-02T10:33:27.275Z,92.74
2017-09-02T10:34:49.601Z,98.34
2017-09-02T10:36:12.434Z,99.99
2017-09-02T10:37:34.334Z,99.99
2017-09-02T10:38:56.823Z,99.99
2017-09-02T10:40:18.682Z,99.99
2017-09-02T10:41:41.441Z,99.99
2017-09-02T10:43:03.272Z,99.99
2017-09-02T10:44:25.131Z,99.99
2017-09-02T10:45:47.355Z,99.99
2017-09-02T10:47:09.874Z,99.99
2017-09-02T10:48:31.725Z,99.99
2017-09-02T10:49:53.885Z,99.99
2017-09-02T10:51:15.735Z,99.99
2017-09-02T10:52:38.734Z,99.99
2017-09-02T10:54:01.264Z,99.99
2017-09-02T10:55:23.103Z,99.99
2017-09-02T10:56:45.414Z,99.99
2017-09-02T10:58:07.531Z,99.99
2017-09-02T10:59:29.720Z,99.99
2017-09-02T11:00:51.910Z,99.99
2017-09-02T11:02:13.943Z,99.99
2017-09-02T11:03:36.683Z,99.99
2017-09-02T11:04:59.164Z,99.99
2017-09-02T11:06:21.335Z,99.99
2017-09-02T11:07:43.193Z,99.99
2017-09-02T11:09:05.004Z,99.99
2017-09-02T11:10:27.636Z,99.99
2017-09-02T11:11:50.141Z,99.99
2017-09-02T11:13:12.680Z,99.99
2017-09-02T11:14:35.213Z,99.99
2017-09-02T11:15:57.403Z,99.99
2017-09-02T11:17:19.595Z,99.99
2017-09-02T11:18:41.781Z,99.99
2017-09-02T11:20:04.602Z,98.58
2017-09-02T11:21:26.455Z,98.14
2017-09-02T11:22:48.983Z,97.96
2017-09-02T11:24:11.495Z,99.99
2017-09-02T11:25:34.302Z,99.21
2017-09-02T11:26:56.145Z,99.01
2017-09-02T11:28:18.356Z,99.99
2017-09-02T11:29:42.572Z,93.53
2017-09-02T11:31:05.823Z,96.32
2017-09-02T11:32:28.049Z,98.53
2017-09-02T11:33:50.211Z,99.3
2017-09-02T11:35:12.415Z,99.99
2017-09-02T11:36:34.835Z,99.99
2017-09-02T11:37:57.333Z,99.99
2017-09-02T11:39:19.510Z,99.99
2017-09-02T11:40:41.693Z,99.99
2017-09-02T11:42:03.845Z,99.99
2017-09-02T11:43:26.473Z,99.99
2017-09-02T11:44:48.640Z,99.99
2017-09-02T11:46:10.883Z,99.99
2017-09-02T11:47:33.114Z,99.99
2017-09-02T11:48:55.275Z,99.99
2017-09-02T11:50:17.780Z,96.08
2017-09-02T11:51:39.655Z,94.45
2017-09-02T11:53:02.586Z,93.77
2017-09-02T11:54:25.084Z,91.85
2017-09-02T11:55:46.953Z,92.71
2017-09-02T11:57:09.124Z,90.5
2017-09-02T11:58:31.803Z,91.17
2017-09-02T11:59:54.081Z,93.53
2017-09-02T12:01:16.278Z,94.06
2017-09-02T12:02:38.783Z,97.33
2017-09-02T12:04:00.303Z,95.98
2017-09-02T12:05:22.464Z,94.44
2017-09-02T12:06:44.328Z,95.36
2017-09-02T12:08:06.845Z,96.03
2017-09-02T12:09:29.293Z,94.73
2017-09-02T12:10:51.502Z,94.59
2017-09-02T12:12:13.344Z,97.09
2017-09-02T12:13:35.663Z,94.83
2017-09-02T12:14:58.435Z,94.64
2017-09-02T12:16:20.386Z,92.85
2017-09-02T12:17:42.884Z,92.61
2017-09-02T12:19:04.766Z,91.66
2017-09-02T12:20:27.063Z,90.89
2017-09-02T12:21:48.924Z,93.05
2017-09-02T12:23:11.443Z,93.91
2017-09-02T12:24:33.970Z,94.01
2017-09-02T12:25:56.419Z,93.38
2017-09-02T12:27:18.962Z,90.98
2017-09-02T12:28:41.243Z,92.33
2017-09-02T12:30:03.390Z,91.03
2017-09-02T12:31:26.174Z,89.68
2017-09-02T12:32:48.461Z,92.43
2017-09-02T12:34:10.953Z,94.01
2017-09-02T12:35:32.492Z,91.94
2017-09-02T12:36:56.733Z,94.06
2017-09-02T12:38:18.913Z,96.22
2017-09-02T12:39:40.763Z,95.21
2017-09-02T12:41:02.622Z,94.64
2017-09-02T12:42:25.140Z,96.22
2017-09-02T12:43:47.514Z,96.51
2017-09-02T12:45:09.708Z,96.22
2017-09-02T12:46:31.878Z,96.13
2017-09-02T12:47:54.392Z,96.17
2017-09-02T12:49:16.264Z,93.77
2017-09-02T12:50:38.437Z,91.32
2017-09-02T12:52:00.701Z,92.43
2017-09-02T12:53:22.925Z,93.87
2017-09-02T12:54:45.083Z,93.87
2017-09-02T12:56:07.574Z,94.45
2017-09-02T12:57:29.776Z,96.94
2017-09-02T12:58:52.221Z,96.27
2017-09-02T13:00:14.092Z,97.38
2017-09-02T13:01:35.622Z,98.1
2017-09-02T13:02:57.617Z,98.82
2017-09-02T13:04:20.143Z,98.05
2017-09-02T13:05:42.624Z,99.83
2017-09-02T13:07:04.473Z,98.44
2017-09-02T13:08:27.080Z,98.34
2017-09-02T13:09:49.942Z,96.7
2017-09-02T13:11:12.446Z,99.06
2017-09-02T13:12:34.601Z,98.58
2017-09-02T13:13:56.483Z,99.99
2017-09-02T13:15:18.694Z,99.63
2017-09-02T13:16:41.201Z,99.06
2017-09-02T13:18:03.190Z,99.83
2017-09-02T13:19:25.370Z,99.99
2017-09-02T13:20:47.334Z,98.96
2017-09-02T13:22:09.842Z,98.1
2017-09-02T13:23:32.072Z,97.86
2017-09-02T13:24:54.231Z,97.96
2017-09-02T13:26:16.836Z,97.24
2017-09-02T13:27:39.388Z,97.57
2017-09-02T13:29:01.252Z,98.34
2017-09-02T13:30:23.788Z,97.09
2017-09-02T13:31:45.629Z,98.44
2017-09-02T13:33:08.132Z,97.33
2017-09-02T13:34:30.652Z,98.05
2017-09-02T13:35:52.593Z,96.99
2017-09-02T13:37:15.185Z,97.52
2017-09-02T13:38:37.052Z,97.86
2017-09-02T13:39:58.912Z,99.92
2017-09-02T13:41:20.779Z,99.44
2017-09-02T13:42:43.930Z,99.99
2017-09-02T13:44:05.454Z,99.99
2017-09-02T13:45:27.782Z,99.88
2017-09-02T13:46:50.103Z,99.99
2017-09-02T13:48:12.313Z,99.99
2017-09-02T13:49:34.482Z,99.98
2017-09-02T13:50:56.695Z,99.99
2017-09-02T13:52:19.218Z,99.99
2017-09-02T13:53:43.653Z,99.73
2017-09-02T13:55:05.942Z,99.16
2017-09-02T13:56:28.142Z,97.33
2017-09-02T13:57:50.653Z,97.33
2017-09-02T13:59:13.064Z,97.42
2017-09-02T14:00:34.902Z,96.27
2017-09-02T14:01:56.504Z,98.39
2017-09-02T14:03:18.072Z,99.99
2017-09-02T14:04:40.812Z,98.39
2017-09-02T14:06:02.339Z,99.99
2017-09-02T14:07:24.501Z,99.99
2017-09-02T14:08:46.985Z,98.58
2017-09-02T14:10:09.092Z,99.06
2017-09-02T14:11:31.365Z,99.99
2017-09-02T14:12:53.562Z,99.99
2017-09-02T14:14:15.731Z,99.99
2017-09-02T14:15:38.162Z,99.99
2017-09-02T14:16:59.352Z,99.99
2017-09-02T14:18:21.833Z,99.99
2017-09-02T14:19:44.035Z,99.99
2017-09-02T14:21:06.791Z,99.99
2017-09-02T14:22:28.983Z,99.99
2017-09-02T14:23:50.831Z,99.99
2017-09-02T14:25:13.010Z,99.99
2017-09-02T14:26:35.507Z,99.99
2017-09-02T14:27:57.696Z,99.99
2017-09-02T14:29:20.192Z,99.99
2017-09-02T14:30:42.421Z,99.99
2017-09-02T14:32:04.618Z,99.99
2017-09-02T14:33:26.781Z,99.99
2017-09-02T14:34:48.775Z,99.99
2017-09-02T14:36:10.298Z,99.99
2017-09-02T14:37:33.242Z,99.99
2017-09-02T14:38:55.401Z,99.99
2017-09-02T14:40:17.559Z,99.99
2017-09-02T14:41:39.736Z,99.99
2017-09-02T14:43:02.732Z,99.99
2017-09-02T14:44:24.910Z,99.99
2017-09-02T14:45:46.774Z,99.99
2017-09-02T14:47:09.263Z,99.99
2017-09-02T14:48:32.082Z,99.99
2017-09-02T14:49:53.608Z,99.99
2017-09-02T14:51:15.782Z,99.99
2017-09-02T14:52:37.939Z,99.99
2017-09-02T14:54:00.421Z,99.99
2017-09-02T14:55:22.591Z,99.99
2017-09-02T14:56:45.080Z,99.99
2017-09-02T14:58:06.614Z,99.99
2017-09-02T14:59:29.063Z,99.99
2017-09-02T15:00:51.233Z,99.99
2017-09-02T15:02:13.629Z,99.99
2017-09-02T15:03:35.461Z,99.99
2017-09-02T15:04:58.093Z,99.99
2017-09-02T15:06:20.589Z,99.99
2017-09-02T15:07:42.822Z,99.99
2017-09-02T15:09:04.700Z,99.99
2017-09-02T15:10:27.230Z,99.99
2017-09-02T15:11:49.159Z,99.35
2017-09-02T15:13:11.643Z,99.92
2017-09-02T15:14:33.821Z,99.92
2017-09-02T15:15:56.671Z,99.99
2017-09-02T15:17:19.330Z,99.99
2017-09-02T15:18:41.509Z,99.99
2017-09-02T15:20:03.372Z,99.49
2017-09-02T15:21:26.108Z,99.49
2017-09-02T15:22:48.285Z,99.99
2017-09-02T15:24:10.448Z,99.99
2017-09-02T15:25:31.961Z,99.99
2017-09-02T15:26:54.161Z,99.99
2017-09-02T15:28:16.321Z,99.99
2017-09-02T15:29:38.811Z,99.99
2017-09-02T15:31:01.322Z,99.99
2017-09-02T15:32:24.070Z,99.99
2017-09-02T15:33:45.923Z,99.99
2017-09-02T15:35:07.762Z,99.99
2017-09-02T15:36:30.254Z,99.99
2017-09-02T15:37:52.121Z,99.99
2017-09-02T15:39:14.282Z,99.99
2017-09-02T15:40:36.772Z,99.99
2017-09-02T15:41:58.993Z,99.99
2017-09-02T15:43:21.645Z,99.99
2017-09-02T15:44:43.804Z,99.99
2017-09-02T15:46:06.022Z,99.99
2017-09-02T15:47:28.071Z,99.99
2017-09-02T15:48:50.673Z,99.99
2017-09-02T15:50:12.562Z,99.99
2017-09-02T15:51:34.731Z,99.99
2017-09-02T15:52:56.600Z,99.99
2017-09-02T15:54:19.119Z,99.99
2017-09-02T15:55:40.663Z,99.99
2017-09-02T15:57:02.193Z,99.99
2017-09-02T15:58:24.900Z,99.99
2017-09-02T15:59:47.632Z,99.99
2017-09-02T16:01:09.460Z,99.99
2017-09-02T16:02:31.321Z,99.99
2017-09-02T16:03:53.645Z,99.99
2017-09-02T16:05:16.260Z,99.99
2017-09-02T16:06:38.737Z,99.99
2017-09-02T16:08:00.933Z,99.99
2017-09-02T16:09:22.802Z,99.99
2017-09-02T16:10:45.237Z,99.99
2017-09-02T16:12:07.072Z,99.99
2017-09-02T16:13:28.917Z,99.99
2017-09-02T16:14:51.437Z,99.99
2017-09-02T16:16:13.962Z,99.99
2017-09-02T16:17:36.177Z,99.99
2017-09-02T16:18:58.664Z,99.99
2017-09-02T16:20:21.294Z,99.99
2017-09-02T16:21:43.820Z,99.99
2017-09-02T16:23:05.703Z,99.99
2017-09-02T16:24:27.849Z,99.99
2017-09-02T16:25:50.160Z,99.99
2017-09-02T16:27:12.663Z,99.99
2017-09-02T16:28:35.194Z,99.99
2017-09-02T16:29:57.515Z,99.99
2017-09-02T16:31:19.772Z,99.99
2017-09-02T16:32:42.226Z,99.99
2017-09-02T16:34:04.412Z,99.99
2017-09-02T16:35:26.902Z,99.99
2017-09-02T16:36:49.529Z,99.99
2017-09-02T16:38:11.643Z,99.99
2017-09-02T16:39:33.837Z,99.99
2017-09-02T16:40:56.012Z,99.99
2017-09-02T16:42:17.882Z,99.99
2017-09-02T16:43:40.416Z,99.99
2017-09-02T16:45:02.602Z,99.99
2017-09-02T16:46:24.824Z,99.99
2017-09-02T16:47:46.672Z,99.99
2017-09-02T16:49:09.203Z,99.99
2017-09-02T16:50:31.714Z,99.99
2017-09-02T16:51:54.289Z,99.99
2017-09-02T16:53:16.794Z,99.99
2017-09-02T16:54:39.424Z,99.99
2017-09-02T16:56:01.355Z,99.99
2017-09-02T16:57:23.198Z,99.99
2017-09-02T16:58:45.055Z,99.99
2017-09-02T17:00:07.723Z,99.99
2017-09-02T17:01:30.045Z,99.99
2017-09-02T17:02:52.329Z,99.99
2017-09-02T17:04:14.844Z,99.99
2017-09-02T17:05:37.646Z,99.99
2017-09-02T17:06:59.932Z,99.99
2017-09-02T17:08:22.139Z,99.99
2017-09-02T17:09:44.680Z,99.99
2017-09-02T17:11:07.467Z,99.99
2017-09-02T17:12:29.634Z,99.99
2017-09-02T17:13:51.865Z,99.99
2017-09-02T17:15:14.357Z,99.99
2017-09-02T17:16:36.873Z,99.99
2017-09-02T17:17:59.379Z,99.99
2017-09-02T17:19:21.578Z,99.99
2017-09-02T17:20:44.091Z,99.99
2017-09-02T17:22:06.749Z,99.99
2017-09-02T17:23:28.962Z,99.99
2017-09-02T17:24:51.473Z,99.99
2017-09-02T17:26:13.976Z,99.99
2017-09-02T17:27:36.762Z,99.99
2017-09-02T17:28:58.957Z,99.99
2017-09-02T17:30:21.464Z,99.99
2017-09-02T17:31:43.610Z,99.99
2017-09-02T17:33:06.464Z,99.99
2017-09-02T17:34:28.934Z,99.99
2017-09-02T17:35:51.153Z,99.99
2017-09-02T17:37:13.333Z,99.99
2017-09-02T17:38:36.295Z,99.99
2017-09-02T17:39:58.937Z,99.99